Terminal Aerodrome Forecast
Issued by NWS

Home | Current Version | Previous Version | Text Only | Print | Product List | Glossary On
Versions: 1 2 3 4 5 6 7 8 9 10 11 12 13 14 15 16 17 18 19 20 21 22 23 24 25 26 27 28 29
000
FTUS41 KBUF 231053 AAA
TAFIAG
TAF AMD
KIAG 231053Z 2311/2406 07010KT 2SM BR OVC002
     FM231400 07012KT P6SM OVC015
     FM231700 07014KT 6SM -RA OVC015
     FM240100 06014G22KT 6SM -RA SCT015 OVC040
     FM240400 06014G25KT 2SM -SNPL SCT015 OVC035=

USA.gov is the U.S. government's official web portal to all federal, state and local government web resources and services.